sensor_id;sensor_type;location;lat;lon;timestamp;P1;durP1;ratioP1;P2;durP2;ratioP2
33022;SDS011;19390;51.460;5.710;2023-02-11T00:01:05;34.03;;;16.73;;
33022;SDS011;19390;51.460;5.710;2023-02-11T00:03:32;36.00;;;16.60;;
33022;SDS011;19390;51.460;5.710;2023-02-11T00:05:58;36.17;;;16.52;;
33022;SDS011;19390;51.460;5.710;2023-02-11T00:08:25;31.70;;;16.45;;
33022;SDS011;19390;51.460;5.710;2023-02-11T00:10:54;33.83;;;17.45;;
33022;SDS011;19390;51.460;5.710;2023-02-11T00:13:21;39.72;;;17.40;;
33022;SDS011;19390;51.460;5.710;2023-02-11T00:15:47;33.33;;;16.17;;
33022;SDS011;19390;51.460;5.710;2023-02-11T00:18:13;43.55;;;17.45;;
33022;SDS011;19390;51.460;5.710;2023-02-11T00:20:39;30.65;;;17.15;;
33022;SDS011;19390;51.460;5.710;2023-02-11T00:23:05;34.42;;;17.10;;
33022;SDS011;19390;51.460;5.710;2023-02-11T00:25:30;34.10;;;17.20;;
33022;SDS011;19390;51.460;5.710;2023-02-11T00:27:56;32.50;;;16.77;;
33022;SDS011;19390;51.460;5.710;2023-02-11T00:30:22;28.77;;;17.90;;
33022;SDS011;19390;51.460;5.710;2023-02-11T00:32:47;33.47;;;16.38;;
33022;SDS011;19390;51.460;5.710;2023-02-11T00:35:13;32.97;;;15.85;;
33022;SDS011;19390;51.460;5.710;2023-02-11T00:37:38;32.38;;;16.27;;
33022;SDS011;19390;51.460;5.710;2023-02-11T00:40:04;33.92;;;16.05;;
33022;SDS011;19390;51.460;5.710;2023-02-11T00:42:30;37.72;;;16.27;;
33022;SDS011;19390;51.460;5.710;2023-02-11T00:44:56;33.63;;;15.82;;
33022;SDS011;19390;51.460;5.710;2023-02-11T00:47:22;27.40;;;14.82;;
33022;SDS011;19390;51.460;5.710;2023-02-11T00:49:48;26.40;;;15.60;;
33022;SDS011;19390;51.460;5.710;2023-02-11T00:52:14;30.17;;;15.23;;
33022;SDS011;19390;51.460;5.710;2023-02-11T00:54:39;32.10;;;15.77;;
33022;SDS011;19390;51.460;5.710;2023-02-11T00:57:05;26.95;;;14.65;;
33022;SDS011;19390;51.460;5.710;2023-02-11T00:59:30;31.67;;;15.00;;
33022;SDS011;19390;51.460;5.710;2023-02-11T01:01:56;29.88;;;14.68;;
33022;SDS011;19390;51.460;5.710;2023-02-11T01:04:22;27.80;;;15.50;;
33022;SDS011;19390;51.460;5.710;2023-02-11T01:06:47;37.03;;;15.90;;
33022;SDS011;19390;51.460;5.710;2023-02-11T01:09:13;33.97;;;15.93;;
33022;SDS011;19390;51.460;5.710;2023-02-11T01:11:39;29.55;;;15.35;;
33022;SDS011;19390;51.460;5.710;2023-02-11T01:14:05;27.45;;;15.60;;
33022;SDS011;19390;51.460;5.710;2023-02-11T01:16:31;32.30;;;16.08;;
33022;SDS011;19390;51.460;5.710;2023-02-11T01:18:56;33.05;;;15.93;;
33022;SDS011;19390;51.460;5.710;2023-02-11T01:21:22;38.53;;;16.05;;
33022;SDS011;19390;51.460;5.710;2023-02-11T01:23:48;29.98;;;14.82;;
33022;SDS011;19390;51.460;5.710;2023-02-11T01:26:14;30.08;;;15.23;;
33022;SDS011;19390;51.460;5.710;2023-02-11T01:28:40;26.95;;;14.18;;
33022;SDS011;19390;51.460;5.710;2023-02-11T01:31:06;32.08;;;14.20;;
33022;SDS011;19390;51.460;5.710;2023-02-11T01:33:32;30.42;;;13.38;;
33022;SDS011;19390;51.460;5.710;2023-02-11T01:36:01;28.25;;;13.10;;
33022;SDS011;19390;51.460;5.710;2023-02-11T01:38:28;27.77;;;13.82;;
33022;SDS011;19390;51.460;5.710;2023-02-11T01:40:58;29.70;;;14.20;;
33022;SDS011;19390;51.460;5.710;2023-02-11T01:43:30;25.67;;;13.48;;
33022;SDS011;19390;51.460;5.710;2023-02-11T01:48:28;25.17;;;13.55;;
33022;SDS011;19390;51.460;5.710;2023-02-11T01:53:32;28.02;;;13.52;;
33022;SDS011;19390;51.460;5.710;2023-02-11T01:56:19;29.73;;;13.23;;
33022;SDS011;19390;51.460;5.710;2023-02-11T01:59:06;24.58;;;13.60;;
33022;SDS011;19390;51.460;5.710;2023-02-11T02:01:39;29.98;;;13.25;;
33022;SDS011;19390;51.460;5.710;2023-02-11T02:04:10;26.77;;;13.43;;
33022;SDS011;19390;51.460;5.710;2023-02-11T02:06:38;26.50;;;12.98;;
33022;SDS011;19390;51.460;5.710;2023-02-11T02:09:14;32.45;;;13.65;;
33022;SDS011;19390;51.460;5.710;2023-02-11T02:11:45;26.88;;;13.43;;
33022;SDS011;19390;51.460;5.710;2023-02-11T02:14:11;26.10;;;13.95;;
33022;SDS011;19390;51.460;5.710;2023-02-11T02:16:37;36.95;;;14.60;;
33022;SDS011;19390;51.460;5.710;2023-02-11T02:22:06;30.40;;;13.68;;
33022;SDS011;19390;51.460;5.710;2023-02-11T02:25:03;26.35;;;13.10;;
33022;SDS011;19390;51.460;5.710;2023-02-11T02:33:41;33.33;;;13.43;;
33022;SDS011;19390;51.460;5.710;2023-02-11T02:39:09;25.30;;;11.90;;
33022;SDS011;19390;51.460;5.710;2023-02-11T02:41:40;27.70;;;13.20;;
33022;SDS011;19390;51.460;5.710;2023-02-11T02:44:06;28.98;;;13.05;;
33022;SDS011;19390;51.460;5.710;2023-02-11T02:46:32;25.42;;;13.32;;
33022;SDS011;19390;51.460;5.710;2023-02-11T02:48:59;23.80;;;13.35;;
33022;SDS011;19390;51.460;5.710;2023-02-11T03:00:07;23.50;;;11.93;;
33022;SDS011;19390;51.460;5.710;2023-02-11T03:05:48;22.63;;;11.30;;
33022;SDS011;19390;51.460;5.710;2023-02-11T03:08:42;26.98;;;11.88;;
33022;SDS011;19390;51.460;5.710;2023-02-11T03:13:39;27.23;;;11.25;;
33022;SDS011;19390;51.460;5.710;2023-02-11T03:16:14;23.60;;;11.35;;
33022;SDS011;19390;51.460;5.710;2023-02-11T03:18:52;26.30;;;11.57;;
33022;SDS011;19390;51.460;5.710;2023-02-11T03:21:29;23.00;;;11.70;;
33022;SDS011;19390;51.460;5.710;2023-02-11T03:24:00;20.15;;;10.52;;
33022;SDS011;19390;51.460;5.710;2023-02-11T03:26:35;30.63;;;11.57;;
33022;SDS011;19390;51.460;5.710;2023-02-11T03:32:06;25.67;;;11.32;;
33022;SDS011;19390;51.460;5.710;2023-02-11T03:34:41;27.90;;;11.02;;
33022;SDS011;19390;51.460;5.710;2023-02-11T03:37:15;25.38;;;11.52;;
33022;SDS011;19390;51.460;5.710;2023-02-11T03:39:50;26.90;;;11.63;;
33022;SDS011;19390;51.460;5.710;2023-02-11T03:42:38;23.30;;;11.93;;
33022;SDS011;19390;51.460;5.710;2023-02-11T03:45:13;31.05;;;11.57;;
33022;SDS011;19390;51.460;5.710;2023-02-11T03:47:43;23.52;;;11.82;;
33022;SDS011;19390;51.460;5.710;2023-02-11T03:50:13;23.73;;;11.07;;
33022;SDS011;19390;51.460;5.710;2023-02-11T03:52:40;25.15;;;11.27;;
33022;SDS011;19390;51.460;5.710;2023-02-11T03:55:10;25.58;;;11.20;;
33022;SDS011;19390;51.460;5.710;2023-02-11T03:57:39;29.58;;;11.75;;
33022;SDS011;19390;51.460;5.710;2023-02-11T04:00:04;28.75;;;12.02;;
33022;SDS011;19390;51.460;5.710;2023-02-11T04:02:33;32.55;;;11.00;;
33022;SDS011;19390;51.460;5.710;2023-02-11T04:05:00;25.33;;;12.32;;
33022;SDS011;19390;51.460;5.710;2023-02-11T04:07:26;19.80;;;11.18;;
33022;SDS011;19390;51.460;5.710;2023-02-11T04:09:52;29.17;;;11.52;;
33022;SDS011;19390;51.460;5.710;2023-02-11T04:12:17;24.73;;;11.57;;
33022;SDS011;19390;51.460;5.710;2023-02-11T04:14:43;25.08;;;11.50;;
33022;SDS011;19390;51.460;5.710;2023-02-11T04:17:09;26.02;;;11.32;;
33022;SDS011;19390;51.460;5.710;2023-02-11T04:19:35;27.50;;;12.38;;
33022;SDS011;19390;51.460;5.710;2023-02-11T04:22:01;25.75;;;11.93;;
33022;SDS011;19390;51.460;5.710;2023-02-11T04:24:27;24.35;;;11.90;;
33022;SDS011;19390;51.460;5.710;2023-02-11T04:26:52;27.08;;;11.98;;
33022;SDS011;19390;51.460;5.710;2023-02-11T04:29:18;28.67;;;12.80;;
33022;SDS011;19390;51.460;5.710;2023-02-11T04:31:44;31.48;;;12.18;;
33022;SDS011;19390;51.460;5.710;2023-02-11T04:34:10;30.20;;;12.43;;
33022;SDS011;19390;51.460;5.710;2023-02-11T04:36:35;26.20;;;12.32;;
33022;SDS011;19390;51.460;5.710;2023-02-11T04:39:01;30.85;;;12.65;;
33022;SDS011;19390;51.460;5.710;2023-02-11T04:41:27;23.40;;;11.75;;
33022;SDS011;19390;51.460;5.710;2023-02-11T04:43:53;29.85;;;11.95;;
33022;SDS011;19390;51.460;5.710;2023-02-11T04:46:18;26.17;;;12.63;;
33022;SDS011;19390;51.460;5.710;2023-02-11T04:48:44;25.08;;;12.73;;
33022;SDS011;19390;51.460;5.710;2023-02-11T04:51:09;25.50;;;12.88;;
33022;SDS011;19390;51.460;5.710;2023-02-11T04:53:35;26.90;;;13.20;;
33022;SDS011;19390;51.460;5.710;2023-02-11T04:56:01;26.20;;;12.68;;
33022;SDS011;19390;51.460;5.710;2023-02-11T04:58:26;31.52;;;12.75;;
33022;SDS011;19390;51.460;5.710;2023-02-11T05:00:52;28.30;;;12.63;;
33022;SDS011;19390;51.460;5.710;2023-02-11T05:03:18;25.85;;;14.20;;
33022;SDS011;19390;51.460;5.710;2023-02-11T05:05:43;29.40;;;12.27;;
33022;SDS011;19390;51.460;5.710;2023-02-11T05:08:09;23.15;;;12.10;;
33022;SDS011;19390;51.460;5.710;2023-02-11T05:10:36;27.55;;;12.18;;
33022;SDS011;19390;51.460;5.710;2023-02-11T05:13:02;31.73;;;13.95;;
33022;SDS011;19390;51.460;5.710;2023-02-11T05:15:28;27.90;;;13.02;;
33022;SDS011;19390;51.460;5.710;2023-02-11T05:17:54;23.65;;;12.50;;
33022;SDS011;19390;51.460;5.710;2023-02-11T05:20:20;31.20;;;13.52;;
33022;SDS011;19390;51.460;5.710;2023-02-11T05:22:45;31.10;;;12.77;;
33022;SDS011;19390;51.460;5.710;2023-02-11T05:25:11;28.30;;;13.50;;
33022;SDS011;19390;51.460;5.710;2023-02-11T05:27:37;25.75;;;13.15;;
33022;SDS011;19390;51.460;5.710;2023-02-11T05:30:03;27.35;;;13.75;;
33022;SDS011;19390;51.460;5.710;2023-02-11T05:32:30;36.38;;;14.70;;
33022;SDS011;19390;51.460;5.710;2023-02-11T05:34:55;31.23;;;14.02;;
33022;SDS011;19390;51.460;5.710;2023-02-11T05:37:21;34.80;;;14.27;;
33022;SDS011;19390;51.460;5.710;2023-02-11T05:39:47;32.83;;;14.30;;
33022;SDS011;19390;51.460;5.710;2023-02-11T05:42:13;26.88;;;14.27;;
33022;SDS011;19390;51.460;5.710;2023-02-11T05:44:38;39.72;;;14.00;;
33022;SDS011;19390;51.460;5.710;2023-02-11T05:47:04;35.05;;;15.32;;
33022;SDS011;19390;51.460;5.710;2023-02-11T05:49:32;37.72;;;15.20;;
33022;SDS011;19390;51.460;5.710;2023-02-11T05:51:58;35.53;;;15.00;;
33022;SDS011;19390;51.460;5.710;2023-02-11T05:54:23;27.88;;;14.60;;
33022;SDS011;19390;51.460;5.710;2023-02-11T05:56:49;31.63;;;14.27;;
33022;SDS011;19390;51.460;5.710;2023-02-11T05:59:14;33.63;;;16.08;;
33022;SDS011;19390;51.460;5.710;2023-02-11T06:01:40;31.17;;;15.57;;
33022;SDS011;19390;51.460;5.710;2023-02-11T06:04:06;27.67;;;14.80;;
33022;SDS011;19390;51.460;5.710;2023-02-11T06:06:32;40.80;;;16.75;;
33022;SDS011;19390;51.460;5.710;2023-02-11T06:08:57;35.75;;;15.32;;
33022;SDS011;19390;51.460;5.710;2023-02-11T06:11:23;32.30;;;15.25;;
33022;SDS011;19390;51.460;5.710;2023-02-11T06:13:49;34.17;;;17.17;;
33022;SDS011;19390;51.460;5.710;2023-02-11T06:16:15;32.30;;;16.58;;
33022;SDS011;19390;51.460;5.710;2023-02-11T06:18:41;36.63;;;16.77;;
33022;SDS011;19390;51.460;5.710;2023-02-11T06:21:07;34.85;;;17.58;;
33022;SDS011;19390;51.460;5.710;2023-02-11T06:23:34;35.63;;;18.42;;
33022;SDS011;19390;51.460;5.710;2023-02-11T06:26:01;35.28;;;17.63;;
33022;SDS011;19390;51.460;5.710;2023-02-11T06:28:28;36.95;;;18.60;;
33022;SDS011;19390;51.460;5.710;2023-02-11T06:30:55;39.38;;;20.20;;
33022;SDS011;19390;51.460;5.710;2023-02-11T06:33:21;48.00;;;21.40;;
33022;SDS011;19390;51.460;5.710;2023-02-11T06:35:47;38.38;;;20.40;;
33022;SDS011;19390;51.460;5.710;2023-02-11T06:38:13;38.22;;;20.02;;
33022;SDS011;19390;51.460;5.710;2023-02-11T06:40:39;35.33;;;19.17;;
33022;SDS011;19390;51.460;5.710;2023-02-11T06:43:05;38.88;;;19.55;;
33022;SDS011;19390;51.460;5.710;2023-02-11T06:45:30;39.33;;;21.50;;
33022;SDS011;19390;51.460;5.710;2023-02-11T06:47:56;36.30;;;19.65;;
33022;SDS011;19390;51.460;5.710;2023-02-11T06:50:21;35.88;;;19.98;;
33022;SDS011;19390;51.460;5.710;2023-02-11T06:52:47;40.42;;;20.48;;
33022;SDS011;19390;51.460;5.710;2023-02-11T06:55:13;48.22;;;23.23;;
33022;SDS011;19390;51.460;5.710;2023-02-11T06:57:38;37.80;;;21.42;;
33022;SDS011;19390;51.460;5.710;2023-02-11T07:00:04;45.58;;;23.15;;
33022;SDS011;19390;51.460;5.710;2023-02-11T07:02:30;48.28;;;24.05;;
33022;SDS011;19390;51.460;5.710;2023-02-11T07:04:56;45.58;;;24.90;;
33022;SDS011;19390;51.460;5.710;2023-02-11T07:07:21;55.72;;;24.58;;
33022;SDS011;19390;51.460;5.710;2023-02-11T07:09:47;50.83;;;25.98;;
33022;SDS011;19390;51.460;5.710;2023-02-11T07:12:12;52.38;;;24.80;;
33022;SDS011;19390;51.460;5.710;2023-02-11T07:14:38;54.60;;;25.35;;
33022;SDS011;19390;51.460;5.710;2023-02-11T07:17:04;54.58;;;26.67;;
33022;SDS011;19390;51.460;5.710;2023-02-11T07:19:29;56.35;;;26.05;;
33022;SDS011;19390;51.460;5.710;2023-02-11T07:21:55;59.78;;;26.92;;
33022;SDS011;19390;51.460;5.710;2023-02-11T07:24:21;55.65;;;28.40;;
33022;SDS011;19390;51.460;5.710;2023-02-11T07:26:47;65.22;;;28.85;;
33022;SDS011;19390;51.460;5.710;2023-02-11T07:29:12;62.75;;;27.10;;
33022;SDS011;19390;51.460;5.710;2023-02-11T07:31:38;63.40;;;28.83;;
33022;SDS011;19390;51.460;5.710;2023-02-11T07:34:04;57.85;;;27.63;;
33022;SDS011;19390;51.460;5.710;2023-02-11T07:36:29;54.85;;;27.45;;
33022;SDS011;19390;51.460;5.710;2023-02-11T07:38:58;64.03;;;29.65;;
33022;SDS011;19390;51.460;5.710;2023-02-11T07:41:24;59.92;;;29.60;;
33022;SDS011;19390;51.460;5.710;2023-02-11T07:43:50;62.85;;;28.73;;
33022;SDS011;19390;51.460;5.710;2023-02-11T07:46:17;65.78;;;29.23;;
33022;SDS011;19390;51.460;5.710;2023-02-11T07:48:47;58.35;;;29.25;;
33022;SDS011;19390;51.460;5.710;2023-02-11T07:51:14;69.00;;;29.80;;
33022;SDS011;19390;51.460;5.710;2023-02-11T07:53:40;66.30;;;33.42;;
33022;SDS011;19390;51.460;5.710;2023-02-11T07:56:06;68.35;;;32.50;;
33022;SDS011;19390;51.460;5.710;2023-02-11T07:58:33;70.20;;;33.63;;
33022;SDS011;19390;51.460;5.710;2023-02-11T08:00:59;70.47;;;33.15;;
33022;SDS011;19390;51.460;5.710;2023-02-11T08:03:33;71.18;;;34.03;;
33022;SDS011;19390;51.460;5.710;2023-02-11T08:09:22;69.68;;;34.17;;
33022;SDS011;19390;51.460;5.710;2023-02-11T08:11:47;73.85;;;32.92;;
33022;SDS011;19390;51.460;5.710;2023-02-11T08:14:13;79.88;;;34.95;;
33022;SDS011;19390;51.460;5.710;2023-02-11T08:16:39;77.22;;;35.03;;
33022;SDS011;19390;51.460;5.710;2023-02-11T08:19:15;82.15;;;37.25;;
33022;SDS011;19390;51.460;5.710;2023-02-11T08:21:41;82.20;;;36.75;;
33022;SDS011;19390;51.460;5.710;2023-02-11T08:24:08;83.35;;;36.13;;
33022;SDS011;19390;51.460;5.710;2023-02-11T08:26:34;79.57;;;37.00;;
33022;SDS011;19390;51.460;5.710;2023-02-11T08:29:01;78.68;;;36.28;;
33022;SDS011;19390;51.460;5.710;2023-02-11T08:31:32;90.45;;;38.33;;
33022;SDS011;19390;51.460;5.710;2023-02-11T08:34:00;77.97;;;37.13;;
33022;SDS011;19390;51.460;5.710;2023-02-11T08:36:27;84.72;;;37.55;;
33022;SDS011;19390;51.460;5.710;2023-02-11T08:38:55;86.10;;;37.92;;
33022;SDS011;19390;51.460;5.710;2023-02-11T08:41:23;90.32;;;40.40;;
33022;SDS011;19390;51.460;5.710;2023-02-11T08:43:49;88.95;;;38.90;;
33022;SDS011;19390;51.460;5.710;2023-02-11T08:46:16;88.32;;;39.42;;
33022;SDS011;19390;51.460;5.710;2023-02-11T08:48:43;96.80;;;39.80;;
33022;SDS011;19390;51.460;5.710;2023-02-11T08:51:13;86.88;;;39.38;;
33022;SDS011;19390;51.460;5.710;2023-02-11T08:53:43;87.63;;;39.65;;
33022;SDS011;19390;51.460;5.710;2023-02-11T08:56:10;95.00;;;40.97;;
33022;SDS011;19390;51.460;5.710;2023-02-11T08:58:36;83.43;;;38.30;;
33022;SDS011;19390;51.460;5.710;2023-02-11T09:01:07;97.63;;;40.03;;
33022;SDS011;19390;51.460;5.710;2023-02-11T09:03:34;99.25;;;40.05;;
33022;SDS011;19390;51.460;5.710;2023-02-11T09:06:03;90.88;;;41.85;;
33022;SDS011;19390;51.460;5.710;2023-02-11T09:08:29;89.25;;;40.60;;
33022;SDS011;19390;51.460;5.710;2023-02-11T09:10:55;91.15;;;39.13;;
33022;SDS011;19390;51.460;5.710;2023-02-11T09:13:21;99.75;;;42.63;;
33022;SDS011;19390;51.460;5.710;2023-02-11T09:15:47;92.43;;;43.13;;
33022;SDS011;19390;51.460;5.710;2023-02-11T09:18:12;90.90;;;42.10;;
33022;SDS011;19390;51.460;5.710;2023-02-11T09:20:38;90.15;;;41.17;;
33022;SDS011;19390;51.460;5.710;2023-02-11T09:23:05;89.00;;;40.30;;
33022;SDS011;19390;51.460;5.710;2023-02-11T09:25:30;101.97;;;42.35;;
33022;SDS011;19390;51.460;5.710;2023-02-11T09:27:56;91.22;;;40.00;;
33022;SDS011;19390;51.460;5.710;2023-02-11T09:30:21;90.38;;;42.10;;
33022;SDS011;19390;51.460;5.710;2023-02-11T09:32:47;95.97;;;41.05;;
33022;SDS011;19390;51.460;5.710;2023-02-11T09:35:12;91.68;;;41.33;;
33022;SDS011;19390;51.460;5.710;2023-02-11T09:37:38;94.28;;;42.38;;
33022;SDS011;19390;51.460;5.710;2023-02-11T09:40:04;97.68;;;43.63;;
33022;SDS011;19390;51.460;5.710;2023-02-11T09:42:42;91.35;;;42.55;;
33022;SDS011;19390;51.460;5.710;2023-02-11T09:45:23;98.15;;;41.83;;
33022;SDS011;19390;51.460;5.710;2023-02-11T09:47:58;98.15;;;42.90;;
33022;SDS011;19390;51.460;5.710;2023-02-11T09:50:46;98.30;;;43.45;;
33022;SDS011;19390;51.460;5.710;2023-02-11T09:53:28;92.53;;;42.53;;
33022;SDS011;19390;51.460;5.710;2023-02-11T09:58:32;94.88;;;42.00;;
33022;SDS011;19390;51.460;5.710;2023-02-11T10:09:29;99.72;;;42.88;;
33022;SDS011;19390;51.460;5.710;2023-02-11T10:12:15;95.73;;;44.03;;
33022;SDS011;19390;51.460;5.710;2023-02-11T10:14:58;88.35;;;40.60;;
33022;SDS011;19390;51.460;5.710;2023-02-11T10:20:17;96.88;;;43.13;;
33022;SDS011;19390;51.460;5.710;2023-02-11T10:22:58;93.82;;;42.83;;
33022;SDS011;19390;51.460;5.710;2023-02-11T10:27:54;99.00;;;45.85;;
33022;SDS011;19390;51.460;5.710;2023-02-11T10:30:25;93.00;;;43.80;;
33022;SDS011;19390;51.460;5.710;2023-02-11T10:33:14;96.75;;;43.45;;
33022;SDS011;19390;51.460;5.710;2023-02-11T10:38:16;94.13;;;42.85;;
33022;SDS011;19390;51.460;5.710;2023-02-11T10:40:42;92.88;;;42.03;;
33022;SDS011;19390;51.460;5.710;2023-02-11T10:43:15;94.35;;;44.92;;
33022;SDS011;19390;51.460;5.710;2023-02-11T10:45:44;86.30;;;41.30;;
33022;SDS011;19390;51.460;5.710;2023-02-11T10:51:13;97.10;;;42.05;;
33022;SDS011;19390;51.460;5.710;2023-02-11T10:53:39;84.18;;;43.10;;
33022;SDS011;19390;51.460;5.710;2023-02-11T10:56:06;88.15;;;41.63;;
33022;SDS011;19390;51.460;5.710;2023-02-11T10:58:43;92.20;;;43.78;;
33022;SDS011;19390;51.460;5.710;2023-02-11T11:04:31;99.10;;;44.03;;
33022;SDS011;19390;51.460;5.710;2023-02-11T11:07:15;97.95;;;44.03;;
33022;SDS011;19390;51.460;5.710;2023-02-11T11:09:55;96.25;;;42.63;;
33022;SDS011;19390;51.460;5.710;2023-02-11T11:14:55;91.97;;;42.80;;
33022;SDS011;19390;51.460;5.710;2023-02-11T11:17:23;95.95;;;42.42;;
33022;SDS011;19390;51.460;5.710;2023-02-11T11:19:55;93.78;;;44.40;;
33022;SDS011;19390;51.460;5.710;2023-02-11T11:22:46;101.53;;;44.40;;
33022;SDS011;19390;51.460;5.710;2023-02-11T11:25:24;95.32;;;43.17;;
33022;SDS011;19390;51.460;5.710;2023-02-11T11:27:53;96.72;;;44.22;;
33022;SDS011;19390;51.460;5.710;2023-02-11T11:30:26;92.10;;;43.42;;
33022;SDS011;19390;51.460;5.710;2023-02-11T11:33:01;87.85;;;41.88;;
33022;SDS011;19390;51.460;5.710;2023-02-11T11:35:27;93.78;;;45.08;;
33022;SDS011;19390;51.460;5.710;2023-02-11T11:38:00;91.78;;;45.67;;
33022;SDS011;19390;51.460;5.710;2023-02-11T11:40:28;93.20;;;44.30;;
33022;SDS011;19390;51.460;5.710;2023-02-11T11:45:37;90.32;;;45.00;;
33022;SDS011;19390;51.460;5.710;2023-02-11T11:48:13;87.95;;;43.78;;
33022;SDS011;19390;51.460;5.710;2023-02-11T11:50:57;86.22;;;42.05;;
33022;SDS011;19390;51.460;5.710;2023-02-11T11:55:59;88.22;;;44.60;;
33022;SDS011;19390;51.460;5.710;2023-02-11T11:58:31;82.93;;;43.38;;
33022;SDS011;19390;51.460;5.710;2023-02-11T12:01:01;89.78;;;42.40;;
33022;SDS011;19390;51.460;5.710;2023-02-11T12:06:32;86.80;;;43.15;;
33022;SDS011;19390;51.460;5.710;2023-02-11T12:09:19;84.68;;;43.33;;
33022;SDS011;19390;51.460;5.710;2023-02-11T12:12:04;81.90;;;42.47;;
33022;SDS011;19390;51.460;5.710;2023-02-11T12:20:50;88.35;;;43.72;;
33022;SDS011;19390;51.460;5.710;2023-02-11T12:26:43;75.45;;;41.03;;
33022;SDS011;19390;51.460;5.710;2023-02-11T12:35:11;79.95;;;39.05;;
33022;SDS011;19390;51.460;5.710;2023-02-11T12:40:18;70.32;;;40.53;;
33022;SDS011;19390;51.460;5.710;2023-02-11T12:46:07;84.25;;;41.80;;
33022;SDS011;19390;51.460;5.710;2023-02-11T12:48:49;74.15;;;38.88;;
33022;SDS011;19390;51.460;5.710;2023-02-11T13:07:48;69.13;;;38.28;;
33022;SDS011;19390;51.460;5.710;2023-02-11T13:12:44;76.82;;;40.92;;
33022;SDS011;19390;51.460;5.710;2023-02-11T13:15:30;85.25;;;39.83;;
33022;SDS011;19390;51.460;5.710;2023-02-11T13:17:59;75.63;;;38.90;;
33022;SDS011;19390;51.460;5.710;2023-02-11T13:20:50;78.22;;;40.50;;
33022;SDS011;19390;51.460;5.710;2023-02-11T13:23:24;75.45;;;40.40;;
33022;SDS011;19390;51.460;5.710;2023-02-11T13:26:17;76.77;;;41.20;;
33022;SDS011;19390;51.460;5.710;2023-02-11T13:29:06;75.18;;;41.67;;
33022;SDS011;19390;51.460;5.710;2023-02-11T13:31:40;81.45;;;42.45;;
33022;SDS011;19390;51.460;5.710;2023-02-11T13:34:24;76.90;;;41.72;;
33022;SDS011;19390;51.460;5.710;2023-02-11T13:37:24;76.35;;;41.83;;
33022;SDS011;19390;51.460;5.710;2023-02-11T13:42:51;72.53;;;40.72;;
33022;SDS011;19390;51.460;5.710;2023-02-11T13:48:21;73.35;;;41.15;;
33022;SDS011;19390;51.460;5.710;2023-02-11T13:50:58;75.60;;;41.60;;
33022;SDS011;19390;51.460;5.710;2023-02-11T13:53:27;82.32;;;41.90;;
33022;SDS011;19390;51.460;5.710;2023-02-11T13:56:39;82.30;;;41.88;;
33022;SDS011;19390;51.460;5.710;2023-02-11T13:58:49;77.25;;;41.25;;
33022;SDS011;19390;51.460;5.710;2023-02-11T14:11:01;79.07;;;43.42;;
33022;SDS011;19390;51.460;5.710;2023-02-11T14:16:16;79.32;;;42.28;;
33022;SDS011;19390;51.460;5.710;2023-02-11T14:21:15;82.85;;;43.47;;
33022;SDS011;19390;51.460;5.710;2023-02-11T14:23:46;78.07;;;44.40;;
33022;SDS011;19390;51.460;5.710;2023-02-11T14:28:48;83.97;;;44.72;;
33022;SDS011;19390;51.460;5.710;2023-02-11T14:34:13;79.22;;;40.38;;
33022;SDS011;19390;51.460;5.710;2023-02-11T14:36:57;76.95;;;42.63;;
33022;SDS011;19390;51.460;5.710;2023-02-11T14:40:01;76.22;;;43.35;;
33022;SDS011;19390;51.460;5.710;2023-02-11T14:42:34;75.75;;;40.80;;
33022;SDS011;19390;51.460;5.710;2023-02-11T14:45:03;74.85;;;42.08;;
33022;SDS011;19390;51.460;5.710;2023-02-11T14:50:11;68.03;;;41.13;;
33022;SDS011;19390;51.460;5.710;2023-02-11T14:52:41;73.22;;;41.67;;
33022;SDS011;19390;51.460;5.710;2023-02-11T14:57:40;75.10;;;43.72;;
33022;SDS011;19390;51.460;5.710;2023-02-11T15:00:21;75.30;;;42.42;;
33022;SDS011;19390;51.460;5.710;2023-02-11T15:02:47;72.15;;;41.65;;
33022;SDS011;19390;51.460;5.710;2023-02-11T15:05:14;72.72;;;40.83;;
33022;SDS011;19390;51.460;5.710;2023-02-11T15:07:46;75.85;;;41.97;;
33022;SDS011;19390;51.460;5.710;2023-02-11T15:12:57;81.78;;;43.83;;
33022;SDS011;19390;51.460;5.710;2023-02-11T15:15:24;71.40;;;41.45;;
33022;SDS011;19390;51.460;5.710;2023-02-11T15:17:51;66.47;;;40.08;;
33022;SDS011;19390;51.460;5.710;2023-02-11T15:20:18;70.53;;;41.88;;
33022;SDS011;19390;51.460;5.710;2023-02-11T15:23:00;67.70;;;40.10;;
33022;SDS011;19390;51.460;5.710;2023-02-11T15:25:27;72.28;;;41.20;;
33022;SDS011;19390;51.460;5.710;2023-02-11T15:27:54;71.38;;;40.40;;
33022;SDS011;19390;51.460;5.710;2023-02-11T15:32:54;74.55;;;43.35;;
33022;SDS011;19390;51.460;5.710;2023-02-11T15:35:28;71.43;;;40.78;;
33022;SDS011;19390;51.460;5.710;2023-02-11T15:37:57;72.60;;;43.40;;
33022;SDS011;19390;51.460;5.710;2023-02-11T15:40:24;65.65;;;40.33;;
33022;SDS011;19390;51.460;5.710;2023-02-11T15:42:56;75.93;;;44.92;;
33022;SDS011;19390;51.460;5.710;2023-02-11T15:45:41;73.40;;;41.17;;
33022;SDS011;19390;51.460;5.710;2023-02-11T15:48:13;73.97;;;41.58;;
33022;SDS011;19390;51.460;5.710;2023-02-11T15:50:47;73.57;;;42.65;;
33022;SDS011;19390;51.460;5.710;2023-02-11T15:53:28;73.30;;;41.70;;
33022;SDS011;19390;51.460;5.710;2023-02-11T15:56:14;74.22;;;44.55;;
33022;SDS011;19390;51.460;5.710;2023-02-11T15:58:45;73.10;;;43.10;;
33022;SDS011;19390;51.460;5.710;2023-02-11T16:01:12;70.10;;;41.42;;
33022;SDS011;19390;51.460;5.710;2023-02-11T16:03:39;67.07;;;38.20;;
33022;SDS011;19390;51.460;5.710;2023-02-11T16:09:55;76.68;;;44.30;;
33022;SDS011;19390;51.460;5.710;2023-02-11T16:11:56;75.07;;;43.25;;
33022;SDS011;19390;51.460;5.710;2023-02-11T16:16:54;71.47;;;42.75;;
33022;SDS011;19390;51.460;5.710;2023-02-11T16:19:23;107.07;;;53.78;;
33022;SDS011;19390;51.460;5.710;2023-02-11T16:21:51;77.75;;;46.35;;
33022;SDS011;19390;51.460;5.710;2023-02-11T16:24:40;111.72;;;51.95;;
33022;SDS011;19390;51.460;5.710;2023-02-11T16:27:17;81.43;;;46.35;;
33022;SDS011;19390;51.460;5.710;2023-02-11T16:29:54;74.60;;;41.60;;
33022;SDS011;19390;51.460;5.710;2023-02-11T16:32:27;75.28;;;42.55;;
33022;SDS011;19390;51.460;5.710;2023-02-11T16:34:54;79.03;;;43.72;;
33022;SDS011;19390;51.460;5.710;2023-02-11T16:37:22;76.18;;;44.17;;
33022;SDS011;19390;51.460;5.710;2023-02-11T16:39:48;84.78;;;48.05;;
33022;SDS011;19390;51.460;5.710;2023-02-11T16:42:17;88.93;;;47.47;;
33022;SDS011;19390;51.460;5.710;2023-02-11T16:44:42;83.53;;;49.58;;
33022;SDS011;19390;51.460;5.710;2023-02-11T16:47:25;74.70;;;41.38;;
33022;SDS011;19390;51.460;5.710;2023-02-11T16:49:52;86.75;;;47.80;;
33022;SDS011;19390;51.460;5.710;2023-02-11T16:52:19;77.25;;;40.53;;
33022;SDS011;19390;51.460;5.710;2023-02-11T16:54:45;81.07;;;44.85;;
33022;SDS011;19390;51.460;5.710;2023-02-11T16:57:32;86.00;;;47.17;;
33022;SDS011;19390;51.460;5.710;2023-02-11T16:59:57;83.30;;;44.55;;
33022;SDS011;19390;51.460;5.710;2023-02-11T17:02:27;85.05;;;47.72;;
33022;SDS011;19390;51.460;5.710;2023-02-11T17:04:56;85.13;;;46.63;;
33022;SDS011;19390;51.460;5.710;2023-02-11T17:07:23;90.90;;;48.80;;
33022;SDS011;19390;51.460;5.710;2023-02-11T17:09:49;93.85;;;51.85;;
33022;SDS011;19390;51.460;5.710;2023-02-11T17:12:16;91.65;;;52.60;;